createdAt,value
2017-08-11T00:00:23.168Z,6.00
2017-08-11T00:02:49.185Z,6.00
2017-08-11T00:05:15.218Z,6.10
2017-08-11T00:07:41.998Z,6.63
2017-08-11T00:10:08.322Z,7.40
2017-08-11T00:12:34.356Z,5.80
2017-08-11T00:15:00.402Z,5.70
2017-08-11T00:17:26.420Z,6.00
2017-08-11T00:19:52.465Z,7.20
2017-08-11T00:22:18.489Z,6.97
2017-08-11T00:24:44.545Z,6.57
2017-08-11T00:27:10.777Z,7.07
2017-08-11T00:29:37.017Z,7.80
2017-08-11T00:32:03.064Z,7.23
2017-08-11T00:34:29.846Z,7.20
2017-08-11T00:36:55.898Z,7.67
2017-08-11T00:39:22.664Z,7.30
2017-08-11T00:41:48.706Z,8.07
2017-08-11T00:44:14.724Z,8.23
2017-08-11T00:46:40.764Z,7.93
2017-08-11T00:49:07.567Z,9.17
2017-08-11T00:51:33.626Z,8.40
2017-08-11T00:53:59.649Z,7.70
2017-08-11T00:56:25.690Z,7.90
2017-08-11T00:58:51.713Z,8.13
2017-08-11T01:01:18.113Z,7.40
2017-08-11T01:03:44.140Z,8.50
2017-08-11T01:06:10.170Z,8.13
2017-08-11T01:08:38.038Z,7.87
2017-08-11T01:11:04.073Z,9.20
2017-08-11T01:13:30.184Z,8.10
2017-08-11T01:15:56.210Z,9.80
2017-08-11T01:18:22.273Z,8.63
2017-08-11T01:20:49.039Z,8.50
2017-08-11T01:23:15.078Z,8.73
2017-08-11T01:25:41.110Z,8.53
2017-08-11T01:28:07.902Z,7.87
2017-08-11T01:30:33.938Z,8.07
2017-08-11T01:33:00.110Z,7.50
2017-08-11T01:35:26.154Z,8.13
2017-08-11T01:37:52.197Z,8.43
2017-08-11T01:40:18.994Z,7.97
2017-08-11T01:42:45.054Z,9.57
2017-08-11T01:45:11.105Z,8.00
2017-08-11T01:47:37.141Z,7.77
2017-08-11T01:50:03.229Z,7.70
2017-08-11T01:52:29.264Z,9.60
2017-08-11T01:54:56.169Z,8.07
2017-08-11T01:57:22.205Z,8.83
2017-08-11T01:59:48.237Z,7.90
2017-08-11T02:02:14.293Z,10.17
2017-08-11T02:04:40.328Z,7.53
2017-08-11T02:07:06.382Z,8.87
2017-08-11T02:09:32.416Z,8.70
2017-08-11T02:11:58.475Z,8.60
2017-08-11T02:14:25.310Z,7.80
2017-08-11T02:16:51.342Z,9.57
2017-08-11T02:19:17.404Z,8.50
2017-08-11T02:21:43.449Z,9.60
2017-08-11T02:24:09.480Z,8.87
2017-08-11T02:26:35.649Z,10.30
2017-08-11T02:29:01.668Z,9.63
2017-08-11T02:31:28.461Z,9.73
2017-08-11T02:33:54.514Z,9.07
2017-08-11T02:36:20.541Z,9.50
2017-08-11T02:38:46.595Z,10.60
2017-08-11T02:41:12.630Z,9.60
2017-08-11T02:43:38.671Z,9.50
2017-08-11T02:46:11.908Z,9.53
2017-08-11T02:48:37.953Z,10.33
2017-08-11T02:51:04.011Z,9.87
2017-08-11T02:53:30.432Z,9.17
2017-08-11T02:55:56.486Z,9.93
2017-08-11T02:58:22.529Z,9.80
2017-08-11T03:00:48.587Z,9.63
2017-08-11T03:03:14.618Z,10.53
2017-08-11T03:05:41.393Z,9.80
2017-08-11T03:08:07.435Z,9.70
2017-08-11T03:10:33.493Z,10.93
2017-08-11T03:12:59.509Z,10.23
2017-08-11T03:15:25.585Z,10.37
2017-08-11T03:17:52.368Z,10.27
2017-08-11T03:20:18.421Z,10.93
2017-08-11T03:22:45.197Z,10.83
2017-08-11T03:25:11.222Z,11.07
2017-08-11T03:27:37.274Z,9.37
2017-08-11T03:30:03.328Z,10.03
2017-08-11T03:32:29.501Z,9.80
2017-08-11T03:34:55.528Z,10.30
2017-08-11T03:37:21.575Z,8.97
2017-08-11T03:39:47.642Z,9.80
2017-08-11T03:42:13.668Z,9.30
2017-08-11T03:44:39.729Z,9.83
2017-08-11T03:47:05.753Z,10.43
2017-08-11T03:49:32.563Z,9.00
2017-08-11T03:51:58.605Z,9.13
2017-08-11T03:54:25.417Z,9.93
2017-08-11T03:56:52.200Z,11.03
2017-08-11T03:59:19.441Z,11.47
2017-08-11T04:01:45.502Z,13.30
2017-08-11T04:04:12.330Z,12.90
2017-08-11T04:06:38.380Z,11.47
2017-08-11T04:09:04.392Z,11.90
2017-08-11T04:11:30.462Z,11.70
2017-08-11T04:13:57.277Z,11.50
2017-08-11T04:16:23.412Z,10.53
2017-08-11T04:18:50.304Z,11.33
2017-08-11T04:21:16.519Z,13.50
2017-08-11T04:26:15.466Z,14.40
2017-08-11T04:28:41.522Z,11.60
2017-08-11T04:31:07.549Z,12.20
2017-08-11T04:36:07.262Z,13.70
2017-08-11T04:38:33.321Z,12.93
2017-08-11T04:40:59.385Z,15.07
2017-08-11T04:43:25.438Z,13.33
2017-08-11T04:45:51.538Z,14.00
2017-08-11T04:48:17.818Z,12.90
2017-08-11T04:50:43.885Z,12.87
2017-08-11T04:53:09.913Z,12.70
2017-08-11T04:55:35.986Z,13.10
2017-08-11T04:58:02.035Z,12.50
2017-08-11T05:00:28.102Z,11.67
2017-08-11T05:02:55.069Z,12.20
2017-08-11T05:05:21.265Z,13.90
2017-08-11T05:07:47.368Z,13.30
2017-08-11T05:10:13.563Z,13.90
2017-08-11T05:12:39.586Z,13.37
2017-08-11T05:15:05.642Z,14.43
2017-08-11T05:17:31.716Z,11.30
2017-08-11T05:19:57.781Z,10.57
2017-08-11T05:22:24.596Z,11.67
2017-08-11T05:24:51.095Z,12.87
2017-08-11T05:27:17.396Z,13.43
2017-08-11T05:29:43.461Z,13.07
2017-08-11T05:32:09.494Z,12.80
2017-08-11T05:34:35.532Z,14.07
2017-08-11T05:37:01.561Z,13.40
2017-08-11T05:39:27.682Z,14.00
2017-08-11T05:41:54.038Z,12.90
2017-08-11T05:44:20.180Z,14.73
2017-08-11T05:46:46.332Z,13.27
2017-08-11T05:49:12.400Z,14.73
2017-08-11T05:51:38.439Z,13.93
2017-08-11T05:54:04.490Z,15.10
2017-08-11T05:56:30.537Z,14.30
2017-08-11T05:58:56.566Z,14.37
2017-08-11T06:01:22.822Z,14.17
2017-08-11T06:03:48.941Z,14.80
2017-08-11T06:06:15.022Z,13.80
2017-08-11T06:08:41.049Z,14.50
2017-08-11T06:11:07.850Z,13.53
2017-08-11T06:13:33.896Z,13.50
2017-08-11T06:15:59.965Z,14.70
2017-08-11T06:18:26.022Z,16.30
2017-08-11T06:20:52.322Z,13.67
2017-08-11T06:23:19.171Z,14.27
2017-08-11T06:25:45.242Z,16.13
2017-08-11T06:28:11.293Z,12.77
2017-08-11T06:30:37.345Z,11.90
2017-08-11T06:33:03.409Z,13.60
2017-08-11T06:35:29.455Z,12.90
2017-08-11T06:37:55.638Z,12.03
2017-08-11T06:40:21.789Z,13.30
2017-08-11T06:42:48.065Z,12.70
2017-08-11T06:45:14.113Z,13.23
2017-08-11T06:47:40.149Z,12.03
2017-08-11T06:50:06.193Z,13.10
2017-08-11T06:52:32.226Z,13.53
2017-08-11T06:54:58.278Z,13.93
2017-08-11T06:57:24.334Z,13.10
2017-08-11T06:59:50.458Z,14.70
2017-08-11T07:02:16.877Z,13.30
2017-08-11T07:04:43.013Z,13.40
2017-08-11T07:07:09.036Z,14.57
2017-08-11T07:09:35.233Z,15.23
2017-08-11T07:12:01.290Z,15.00
2017-08-11T07:14:27.566Z,12.77
2017-08-11T07:16:53.685Z,12.40
2017-08-11T07:19:19.727Z,12.57
2017-08-11T07:21:45.983Z,12.70
2017-08-11T07:24:12.004Z,12.30
2017-08-11T07:26:38.161Z,13.67
2017-08-11T07:29:04.192Z,11.33
2017-08-11T07:31:30.958Z,12.47
2017-08-11T07:33:57.021Z,12.40
2017-08-11T07:36:23.842Z,12.00
2017-08-11T07:38:49.969Z,11.33
2017-08-11T07:41:16.009Z,11.23
2017-08-11T07:43:42.058Z,13.30
2017-08-11T07:46:08.098Z,11.27
2017-08-11T07:48:35.389Z,13.00
2017-08-11T07:51:01.425Z,13.47
2017-08-11T07:53:27.478Z,12.70
2017-08-11T07:55:54.060Z,12.33
2017-08-11T07:58:20.089Z,11.97
2017-08-11T08:00:47.114Z,12.00
2017-08-11T08:03:13.175Z,11.97
2017-08-11T08:05:39.221Z,11.83
2017-08-11T08:08:05.253Z,12.50
2017-08-11T08:10:31.340Z,13.27
2017-08-11T08:12:57.367Z,11.93
2017-08-11T08:15:24.398Z,12.60
2017-08-11T08:17:50.604Z,13.23
2017-08-11T08:20:16.708Z,12.77
2017-08-11T08:22:42.774Z,13.07
2017-08-11T08:25:08.813Z,11.40
2017-08-11T08:27:34.887Z,11.90
2017-08-11T08:30:00.925Z,11.97
2017-08-11T08:32:26.969Z,10.77
2017-08-11T08:34:53.357Z,12.20
2017-08-11T08:37:19.837Z,11.97
2017-08-11T08:39:46.717Z,12.47
2017-08-11T08:42:12.789Z,12.50
2017-08-11T08:44:38.853Z,12.73
2017-08-11T08:47:04.878Z,12.90
2017-08-11T08:49:30.930Z,11.60
2017-08-11T08:51:56.972Z,10.90
2017-08-11T08:54:23.390Z,11.33
2017-08-11T08:56:49.450Z,11.63
2017-08-11T08:59:15.480Z,8.93
2017-08-11T09:01:41.520Z,11.43
2017-08-11T09:04:07.769Z,12.27
2017-08-11T09:06:33.840Z,13.17
2017-08-11T09:08:59.890Z,13.53
2017-08-11T09:11:25.960Z,13.37
2017-08-11T09:13:52.000Z,12.47
2017-08-11T09:16:18.066Z,9.87
2017-08-11T09:18:44.107Z,9.50
2017-08-11T09:21:10.174Z,10.93
2017-08-11T09:23:36.205Z,9.10
2017-08-11T09:26:14.676Z,9.80
2017-08-11T09:28:53.043Z,9.60
2017-08-11T09:31:31.737Z,9.27
2017-08-11T09:34:10.004Z,9.57
2017-08-11T09:36:39.181Z,9.73
2017-08-11T09:39:05.219Z,10.07
2017-08-11T09:41:31.275Z,10.00
2017-08-11T09:43:57.327Z,10.40
2017-08-11T09:46:23.354Z,11.20
2017-08-11T09:48:49.406Z,11.50
2017-08-11T09:51:16.213Z,10.90
2017-08-11T09:53:42.267Z,10.80
2017-08-11T09:56:08.295Z,12.17
2017-08-11T09:58:34.342Z,10.60
2017-08-11T10:01:00.371Z,10.70
2017-08-11T10:03:27.166Z,11.40
2017-08-11T10:05:53.202Z,12.20
2017-08-11T10:08:19.360Z,11.47
2017-08-11T10:10:45.388Z,11.67
2017-08-11T10:13:11.454Z,12.07
2017-08-11T10:15:38.253Z,13.80
2017-08-11T10:18:04.469Z,12.30
2017-08-11T10:20:30.524Z,12.10
2017-08-11T10:22:56.549Z,10.60
2017-08-11T10:25:22.589Z,11.20
2017-08-11T10:27:48.640Z,11.10
2017-08-11T10:30:14.814Z,10.07
2017-08-11T10:32:40.853Z,10.30
2017-08-11T10:35:07.627Z,9.00
2017-08-11T10:37:33.694Z,8.67
2017-08-11T10:39:59.744Z,8.43
2017-08-11T10:42:25.790Z,7.40
2017-08-11T10:44:51.843Z,8.63
2017-08-11T10:47:17.897Z,8.50
2017-08-11T10:49:43.926Z,8.40
2017-08-11T10:52:10.082Z,6.60
2017-08-11T10:54:36.114Z,7.70
2017-08-11T10:57:02.142Z,7.10
2017-08-11T10:59:28.198Z,6.00
2017-08-11T11:01:54.234Z,6.60
2017-08-11T11:04:20.286Z,8.03
2017-08-11T11:06:46.333Z,7.60
2017-08-11T11:09:12.386Z,6.53
2017-08-11T11:11:38.420Z,8.10
2017-08-11T11:14:04.817Z,7.90
2017-08-11T11:16:30.857Z,8.60
2017-08-11T11:18:56.889Z,7.97
2017-08-11T11:21:22.934Z,8.37
2017-08-11T11:23:48.994Z,7.57
2017-08-11T11:26:15.783Z,8.03
2017-08-11T11:28:41.809Z,7.53
2017-08-11T11:31:07.852Z,7.43
2017-08-11T11:33:34.645Z,6.40
2017-08-11T11:36:00.681Z,7.47
2017-08-11T11:38:26.705Z,7.50
2017-08-11T11:40:53.605Z,7.03
2017-08-11T11:43:19.624Z,7.40
2017-08-11T11:45:45.641Z,7.50
2017-08-11T11:48:12.444Z,7.60
2017-08-11T11:50:38.466Z,7.77
2017-08-11T11:53:04.529Z,6.60
2017-08-11T11:55:30.566Z,7.53
2017-08-11T11:57:56.589Z,6.70
2017-08-11T12:00:22.640Z,7.43
2017-08-11T12:02:48.903Z,5.93
2017-08-11T12:05:14.943Z,6.80
2017-08-11T12:07:40.983Z,6.67
2017-08-11T12:10:07.026Z,5.97
2017-08-11T12:12:33.074Z,6.70
2017-08-11T12:14:59.125Z,7.13
2017-08-11T12:17:25.196Z,7.50
2017-08-11T12:19:51.293Z,6.20
2017-08-11T12:22:17.338Z,6.97
2017-08-11T12:24:44.144Z,7.07
2017-08-11T12:27:10.217Z,7.90
2017-08-11T12:29:36.441Z,7.70
2017-08-11T12:32:02.464Z,7.50
2017-08-11T12:34:28.491Z,8.23
2017-08-11T12:36:54.541Z,8.50
2017-08-11T12:39:20.565Z,8.40
2017-08-11T12:41:46.610Z,7.50
2017-08-11T12:44:12.633Z,8.40
2017-08-11T12:46:38.672Z,8.33
2017-08-11T12:49:04.717Z,9.50
2017-08-11T12:51:30.753Z,8.60
2017-08-11T12:53:56.778Z,10.70
2017-08-11T12:56:23.820Z,9.13
2017-08-11T12:58:49.940Z,9.10
2017-08-11T13:01:18.224Z,8.20
2017-08-11T13:03:46.016Z,8.53
2017-08-11T13:06:12.153Z,9.37
2017-08-11T13:08:38.194Z,8.30
2017-08-11T13:11:04.253Z,8.43
2017-08-11T13:13:37.457Z,8.00
2017-08-11T13:16:03.584Z,7.83
2017-08-11T13:18:30.431Z,7.37
2017-08-11T13:20:56.518Z,8.50
2017-08-11T13:23:22.574Z,8.00
2017-08-11T13:25:48.656Z,9.90
2017-08-11T13:28:14.730Z,7.97
2017-08-11T13:30:40.809Z,8.47
2017-08-11T13:33:06.861Z,7.50
2017-08-11T13:35:32.901Z,6.97
2017-08-11T13:37:58.994Z,6.50
2017-08-11T13:40:25.045Z,6.80
2017-08-11T13:42:51.165Z,6.70
2017-08-11T13:45:17.216Z,5.23
2017-08-11T13:47:43.277Z,5.30
2017-08-11T13:50:09.321Z,5.93
2017-08-11T13:52:35.381Z,5.87
2017-08-11T13:55:01.417Z,6.97
2017-08-11T13:57:27.483Z,7.07
2017-08-11T13:59:53.526Z,6.80
2017-08-11T14:02:19.639Z,6.87
2017-08-11T14:04:45.669Z,5.73
2017-08-11T14:07:11.745Z,5.57
2017-08-11T14:09:37.778Z,6.30
2017-08-11T14:12:03.840Z,7.00
2017-08-11T14:14:29.909Z,6.47
2017-08-11T14:16:55.954Z,7.20
2017-08-11T14:19:22.065Z,6.30
2017-08-11T14:21:48.100Z,7.00
2017-08-11T14:24:20.428Z,6.27
2017-08-11T14:26:46.470Z,5.90
2017-08-11T14:29:12.611Z,5.77
2017-08-11T14:31:38.654Z,6.70
2017-08-11T14:34:04.710Z,6.30
2017-08-11T14:36:30.741Z,7.20
2017-08-11T14:38:56.815Z,8.40
2017-08-11T14:41:22.845Z,7.33
2017-08-11T14:43:48.985Z,10.40
2017-08-11T14:46:15.015Z,7.13
2017-08-11T14:48:41.073Z,7.30
2017-08-11T14:51:07.160Z,7.60
2017-08-11T14:53:33.954Z,7.80
2017-08-11T14:56:00.082Z,7.23
2017-08-11T14:58:27.082Z,7.17
2017-08-11T15:00:53.257Z,7.30
2017-08-11T15:03:20.101Z,7.37
2017-08-11T15:05:46.229Z,7.70
2017-08-11T15:08:12.286Z,8.00
2017-08-11T15:10:38.323Z,7.50
2017-08-11T15:13:04.427Z,8.37
2017-08-11T15:15:30.560Z,7.97
2017-08-11T15:17:57.988Z,9.53
2017-08-11T15:20:24.141Z,6.93
2017-08-11T15:22:50.341Z,7.83
2017-08-11T15:25:18.293Z,7.67
2017-08-11T15:27:44.501Z,7.80
2017-08-11T15:30:10.553Z,7.93
2017-08-11T15:32:36.629Z,7.00
2017-08-11T15:35:02.675Z,8.00
2017-08-11T15:37:28.738Z,6.20
2017-08-11T15:39:54.758Z,5.50
2017-08-11T15:42:20.799Z,5.40
2017-08-11T15:44:46.837Z,6.40
2017-08-11T15:47:12.955Z,6.20
2017-08-11T15:49:39.110Z,7.40
2017-08-11T15:52:05.424Z,7.43
2017-08-11T15:54:31.450Z,7.77
2017-08-11T15:56:57.620Z,7.23
2017-08-11T15:59:23.697Z,5.80
2017-08-11T16:01:49.816Z,5.80
2017-08-11T16:04:15.997Z,6.33
2017-08-11T16:06:42.086Z,6.60
2017-08-11T16:09:08.145Z,5.60
2017-08-11T16:11:34.306Z,7.60
2017-08-11T16:14:00.878Z,6.73
2017-08-11T16:16:27.173Z,6.70
2017-08-11T16:18:53.502Z,7.70
2017-08-11T16:21:19.764Z,7.70
2017-08-11T16:23:45.899Z,8.03
2017-08-11T16:26:11.980Z,9.07
2017-08-11T16:28:38.863Z,8.60
2017-08-11T16:31:04.950Z,9.07
2017-08-11T16:33:30.998Z,9.20
2017-08-11T16:35:57.087Z,9.67
2017-08-11T16:38:23.135Z,9.93
2017-08-11T16:40:49.162Z,8.90
2017-08-11T16:43:15.235Z,8.90
2017-08-11T16:45:41.285Z,9.83
2017-08-11T16:48:07.350Z,9.43
2017-08-11T16:50:33.380Z,8.80
2017-08-11T16:52:59.403Z,8.00
2017-08-11T16:55:25.466Z,9.23
2017-08-11T16:57:51.505Z,8.83
2017-08-11T17:00:17.581Z,9.40
2017-08-11T17:02:43.626Z,10.13
2017-08-11T17:05:09.700Z,9.57
2017-08-11T17:07:35.727Z,10.50
2017-08-11T17:10:01.784Z,10.07
2017-08-11T17:12:27.838Z,12.07
2017-08-11T17:14:53.902Z,12.00
2017-08-11T17:17:19.941Z,13.00
2017-08-11T17:19:46.761Z,11.37
2017-08-11T17:22:13.540Z,12.23
2017-08-11T17:24:39.593Z,12.07
2017-08-11T17:27:06.377Z,11.23
2017-08-11T17:29:32.438Z,12.87
2017-08-11T17:31:59.388Z,12.13
2017-08-11T17:34:25.492Z,11.93
2017-08-11T17:36:51.557Z,11.10
2017-08-11T17:39:17.606Z,12.27
2017-08-11T17:41:44.389Z,13.63
2017-08-11T17:44:10.459Z,11.10
2017-08-11T17:46:36.518Z,12.17
2017-08-11T17:49:02.598Z,11.50
2017-08-11T17:51:28.644Z,11.57
2017-08-11T17:53:54.708Z,13.10
2017-08-11T17:56:23.898Z,14.80
2017-08-11T17:58:49.946Z,12.53
2017-08-11T18:01:16.010Z,10.73
2017-08-11T18:03:42.059Z,11.90
2017-08-11T18:06:08.102Z,10.60
2017-08-11T18:08:34.140Z,11.60
2017-08-11T18:11:00.227Z,11.10
2017-08-11T18:13:26.262Z,11.33
2017-08-11T18:15:52.337Z,11.43
2017-08-11T18:18:18.372Z,11.33
2017-08-11T18:20:44.413Z,11.60
2017-08-11T18:23:10.478Z,13.93
2017-08-11T18:25:36.526Z,13.67
2017-08-11T18:28:02.559Z,15.30
2017-08-11T18:30:28.632Z,13.40
2017-08-11T18:33:02.360Z,14.50
2017-08-11T18:35:28.405Z,14.30
2017-08-11T18:37:54.483Z,14.77
2017-08-11T18:40:20.541Z,13.63
2017-08-11T18:42:47.329Z,14.20
2017-08-11T18:45:13.421Z,14.57
2017-08-11T18:47:39.452Z,14.27
2017-08-11T18:50:05.483Z,13.80
2017-08-11T18:52:31.548Z,14.77
2017-08-11T18:54:57.586Z,14.30
2017-08-11T18:57:23.630Z,14.50
2017-08-11T18:59:49.660Z,12.73
2017-08-11T19:02:15.717Z,13.37
2017-08-11T19:04:41.751Z,12.23
2017-08-11T19:07:07.808Z,12.20
2017-08-11T19:09:33.845Z,11.60
2017-08-11T19:11:59.938Z,10.70
2017-08-11T19:14:25.974Z,11.77
2017-08-11T19:16:52.021Z,11.57
2017-08-11T19:19:18.793Z,11.27
2017-08-11T19:21:44.857Z,11.30
2017-08-11T19:24:11.638Z,9.97
2017-08-11T19:26:37.685Z,9.40
2017-08-11T19:29:03.705Z,11.10
2017-08-11T19:31:29.753Z,9.40
2017-08-11T19:33:55.797Z,9.97
2017-08-11T19:36:21.849Z,9.43
2017-08-11T19:38:48.623Z,9.60
2017-08-11T19:41:14.674Z,9.17
2017-08-11T19:43:40.714Z,8.00
2017-08-11T19:46:06.773Z,10.57
2017-08-11T19:48:32.810Z,9.37
2017-08-11T19:50:59.629Z,8.60
2017-08-11T19:53:25.697Z,8.27
2017-08-11T19:55:51.776Z,8.43
2017-08-11T19:58:17.825Z,8.10
2017-08-11T20:00:43.863Z,7.90
2017-08-11T20:03:09.923Z,7.90
2017-08-11T20:05:35.982Z,6.33
2017-08-11T20:08:02.024Z,7.00
2017-08-11T20:10:28.825Z,6.57
2017-08-11T20:12:54.886Z,7.43
2017-08-11T20:15:20.949Z,7.60
2017-08-11T20:17:47.864Z,7.67
2017-08-11T20:20:13.889Z,8.80
2017-08-11T20:22:39.949Z,8.53
2017-08-11T20:25:06.000Z,6.87
2017-08-11T20:27:32.053Z,7.87
2017-08-11T20:29:58.122Z,7.67
2017-08-11T20:32:24.184Z,7.60
2017-08-11T20:34:50.249Z,7.63
2017-08-11T20:37:16.314Z,7.67
2017-08-11T20:39:42.347Z,7.97
2017-08-11T20:42:08.372Z,9.53
2017-08-11T20:44:34.442Z,8.30
2017-08-11T20:47:00.476Z,8.73
2017-08-11T20:49:26.525Z,8.87
2017-08-11T20:51:53.301Z,10.60
2017-08-11T20:54:19.373Z,9.70
2017-08-11T20:56:46.160Z,9.20
2017-08-11T20:59:12.204Z,9.87
2017-08-11T21:01:38.245Z,10.80
2017-08-11T21:04:04.305Z,9.80
2017-08-11T21:06:30.346Z,11.40
2017-08-11T21:08:57.161Z,11.20
2017-08-11T21:11:23.977Z,10.93
2017-08-11T21:13:50.077Z,9.60
2017-08-11T21:16:16.101Z,9.43
2017-08-11T21:18:42.247Z,9.37
2017-08-11T21:21:08.320Z,9.30
2017-08-11T21:23:34.374Z,8.60
2017-08-11T21:26:00.410Z,7.70
2017-08-11T21:28:26.476Z,8.63
2017-08-11T21:30:53.289Z,9.10
2017-08-11T21:33:19.358Z,8.40
2017-08-11T21:35:45.390Z,10.57
2017-08-11T21:38:11.437Z,9.80
2017-08-11T21:40:38.206Z,9.80
2017-08-11T21:43:04.242Z,9.53
2017-08-11T21:45:30.365Z,10.37
2017-08-11T21:47:56.598Z,10.70
2017-08-11T21:50:22.641Z,10.27
2017-08-11T21:52:48.967Z,9.83
2017-08-11T21:55:15.068Z,10.83
2017-08-11T21:57:41.121Z,9.87
2017-08-11T22:00:07.205Z,11.50
2017-08-11T22:02:33.253Z,11.30
2017-08-11T22:04:59.433Z,12.00
2017-08-11T22:07:25.701Z,10.60
2017-08-11T22:09:52.543Z,10.70
2017-08-11T22:12:18.630Z,10.90
2017-08-11T22:14:44.750Z,12.73
2017-08-11T22:17:11.537Z,11.50
2017-08-11T22:19:37.686Z,11.90
2017-08-11T22:22:03.848Z,13.27
2017-08-11T22:24:29.953Z,13.47
2017-08-11T22:26:56.040Z,13.17
2017-08-11T22:29:22.149Z,13.70
2017-08-11T22:31:49.029Z,13.50
2017-08-11T22:34:15.121Z,15.30
2017-08-11T22:36:41.162Z,17.70
2017-08-11T22:39:22.209Z,15.70
2017-08-11T22:41:48.296Z,15.27
2017-08-11T22:44:14.405Z,17.20
2017-08-11T22:46:40.485Z,14.77
2017-08-11T22:49:07.297Z,15.53
2017-08-11T22:51:33.405Z,13.80
2017-08-11T22:53:59.485Z,14.40
2017-08-11T22:56:25.608Z,14.50
2017-08-11T22:58:51.829Z,13.70
2017-08-11T23:01:17.954Z,14.80
2017-08-11T23:03:44.162Z,15.07
2017-08-11T23:06:10.316Z,14.53
2017-08-11T23:08:44.255Z,15.40
2017-08-11T23:11:10.451Z,14.70
2017-08-11T23:13:36.601Z,15.63
2017-08-11T23:16:03.490Z,16.80
2017-08-11T23:18:29.577Z,14.47
2017-08-11T23:20:55.706Z,15.57
2017-08-11T23:23:21.826Z,14.63
2017-08-11T23:25:47.947Z,16.43
2017-08-11T23:28:14.058Z,14.50
2017-08-11T23:30:40.221Z,14.70
2017-08-11T23:33:07.135Z,15.60
2017-08-11T23:35:33.274Z,15.10
2017-08-11T23:37:59.546Z,14.70
2017-08-11T23:40:25.712Z,15.50
2017-08-11T23:42:51.879Z,14.90
2017-08-11T23:45:18.015Z,17.00
2017-08-11T23:47:44.154Z,16.87
2017-08-11T23:50:10.217Z,18.17
2017-08-11T23:52:36.358Z,18.50
2017-08-11T23:55:03.255Z,16.77
2017-08-11T23:57:29.370Z,19.00
2017-08-11T23:59:55.449Z,19.00
